createdAt,value
2022-11-15T00:00:06.629Z,13.1
2022-11-15T00:05:09.673Z,14.5
2022-11-15T00:10:06.864Z,12.2
2022-11-15T00:15:06.750Z,11.1
2022-11-15T00:20:06.836Z,14.3
2022-11-15T00:25:06.698Z,12.8
2022-11-15T00:30:06.434Z,10.4
2022-11-15T00:35:07.250Z,9.8
2022-11-15T00:40:07.388Z,9.8
2022-11-15T00:45:06.771Z,10.5
2022-11-15T00:50:06.262Z,13.8
2022-11-15T00:55:06.602Z,8.8
2022-11-15T01:00:06.923Z,13.9
2022-11-15T01:05:07.250Z,12.2
2022-11-15T01:10:06.542Z,11.1
2022-11-15T01:15:06.569Z,20.2
2022-11-15T01:20:06.515Z,9.9
2022-11-15T01:25:06.504Z,13.8
2022-11-15T01:30:06.438Z,12.3
2022-11-15T01:35:06.435Z,11.1
2022-11-15T01:40:06.484Z,11.5
2022-11-15T01:45:06.281Z,14.9
2022-11-15T01:50:06.534Z,15.8
2022-11-15T01:55:06.451Z,15.5
2022-11-15T02:00:06.714Z,14.6
2022-11-15T02:05:07.216Z,18.7
2022-11-15T02:10:06.358Z,8.4
2022-11-15T02:15:06.254Z,19.7
2022-11-15T02:20:06.982Z,14.4
2022-11-15T02:25:06.544Z,25.3
2022-11-15T02:30:06.341Z,13
2022-11-15T02:35:06.696Z,16.7
2022-11-15T02:40:06.956Z,13.3
2022-11-15T02:45:06.863Z,13.3
2022-11-15T02:50:06.760Z,15.3
2022-11-15T02:55:06.536Z,11.5
2022-11-15T03:00:06.625Z,11.9
2022-11-15T03:05:06.557Z,13.3
2022-11-15T03:10:06.731Z,11.7
2022-11-15T03:15:06.284Z,16.5
2022-11-15T03:20:07.114Z,17.1
2022-11-15T03:25:07.113Z,13.3
2022-11-15T03:30:07.226Z,17.3
2022-11-15T03:35:06.601Z,11.3
2022-11-15T03:40:06.659Z,12.9
2022-11-15T03:45:06.772Z,30.4
2022-11-15T03:50:07.153Z,19.2
2022-11-15T03:55:06.253Z,15.3
2022-11-15T04:00:07.250Z,23.6
2022-11-15T04:05:06.944Z,18.6
2022-11-15T04:10:07.042Z,17.9
2022-11-15T04:15:06.972Z,23.1
2022-11-15T04:20:07.149Z,19.4
2022-11-15T04:25:06.312Z,16.4
2022-11-15T04:30:06.296Z,19.5
2022-11-15T04:35:06.196Z,16
2022-11-15T04:40:07.192Z,20.4
2022-11-15T04:45:07.177Z,18.7
2022-11-15T04:50:07.124Z,20.5
2022-11-15T04:55:07.196Z,32.3
2022-11-15T05:00:06.392Z,21.7
2022-11-15T05:05:07.106Z,22.5
2022-11-15T05:10:07.032Z,18.7
2022-11-15T05:15:07.144Z,26.4
2022-11-15T05:20:06.329Z,18.4
2022-11-15T05:25:06.251Z,23.3
2022-11-15T05:30:06.309Z,18.1
2022-11-15T05:35:07.141Z,26.1
2022-11-15T05:40:06.249Z,22.7
2022-11-15T05:45:06.294Z,23.5
2022-11-15T05:50:06.330Z,18.9
2022-11-15T05:55:06.342Z,17.8
2022-11-15T06:00:06.580Z,22.5
2022-11-15T06:05:07.192Z,20.1
2022-11-15T06:10:07.245Z,27.1
2022-11-15T06:15:07.202Z,17.1
2022-11-15T06:20:07.234Z,18.5
2022-11-15T06:25:06.353Z,22.4
2022-11-15T06:30:06.217Z,23.8
2022-11-15T06:35:07.125Z,28.5
2022-11-15T06:40:07.167Z,31.5
2022-11-15T06:45:07.134Z,42
2022-11-15T06:50:06.420Z,43.7
2022-11-15T06:55:06.444Z,29.4
2022-11-15T07:00:06.551Z,37.2
2022-11-15T07:05:07.017Z,31.5
2022-11-15T07:10:07.102Z,29.9
2022-11-15T07:15:07.220Z,40.3
2022-11-15T07:20:06.321Z,25.8
2022-11-15T07:25:06.342Z,38.1
2022-11-15T07:30:06.454Z,38.5
2022-11-15T07:35:06.578Z,37.3
2022-11-15T07:40:06.684Z,48.1
2022-11-15T07:45:06.731Z,41.4
2022-11-15T07:50:06.802Z,39.2
2022-11-15T07:55:06.788Z,36.4
2022-11-15T08:00:06.752Z,40.2
2022-11-15T08:05:06.445Z,39.4
2022-11-15T08:10:06.570Z,59.9
2022-11-15T08:15:06.863Z,37.5
2022-11-15T08:20:06.827Z,45
2022-11-15T08:25:06.811Z,38.6
2022-11-15T08:30:06.857Z,41.8
2022-11-15T08:35:06.650Z,41.9
2022-11-15T08:40:06.601Z,36.1
2022-11-15T08:45:06.551Z,48.3
2022-11-15T08:50:06.639Z,33.9
2022-11-15T08:55:06.510Z,40.2
2022-11-15T09:00:06.989Z,59.8
2022-11-15T09:05:06.594Z,37.4
2022-11-15T09:10:07.098Z,65.7
2022-11-15T09:15:06.921Z,57.3
2022-11-15T09:20:06.970Z,51.4
2022-11-15T09:25:07.002Z,42
2022-11-15T09:30:07.101Z,55.5
2022-11-15T09:35:06.979Z,43.7
2022-11-15T09:40:06.889Z,64.8
2022-11-15T09:45:06.813Z,41.1
2022-11-15T09:50:07.215Z,31.4
2022-11-15T09:55:06.522Z,31.2
2022-11-15T10:00:06.629Z,30.8
2022-11-15T10:05:06.550Z,31.4
2022-11-15T10:10:06.264Z,29.2
2022-11-15T10:15:06.816Z,31.2
2022-11-15T10:20:06.854Z,35.3
2022-11-15T10:25:06.483Z,30.7
2022-11-15T10:30:06.500Z,47.3
2022-11-15T10:35:06.451Z,45.3
2022-11-15T10:45:06.371Z,19
2022-11-15T10:50:06.396Z,36.7
2022-11-15T10:55:06.497Z,22.5
2022-11-15T11:00:06.446Z,25.5
2022-11-15T11:05:07.225Z,26
2022-11-15T11:10:06.675Z,26.2
2022-11-15T11:15:06.687Z,33.5
2022-11-15T11:20:06.635Z,28
2022-11-15T11:25:06.905Z,33.3
2022-11-15T11:30:06.981Z,43.9
2022-11-15T11:35:06.846Z,45.4
2022-11-15T11:40:06.546Z,26.2
2022-11-15T11:45:07.069Z,33.9
2022-11-15T11:50:06.551Z,30.3
2022-11-15T11:55:06.693Z,45.6
2022-11-15T12:00:06.674Z,44.2
2022-11-15T12:05:06.237Z,32.5
2022-11-15T12:10:06.534Z,68
2022-11-15T12:15:06.451Z,30.4
2022-11-15T12:20:07.207Z,28.9
2022-11-15T12:25:06.826Z,38.7
2022-11-15T12:30:06.328Z,40
2022-11-15T12:35:07.157Z,39.6
2022-11-15T12:40:06.740Z,52.3
2022-11-15T12:45:07.022Z,53.4
2022-11-15T12:50:07.111Z,41.4
2022-11-15T12:55:06.818Z,39.3
2022-11-15T13:00:06.872Z,50.6
2022-11-15T13:05:06.489Z,42.8
2022-11-15T13:10:07.166Z,39.4
2022-11-15T13:15:06.317Z,37.5
2022-11-15T13:20:06.540Z,43
2022-11-15T13:25:06.558Z,43.4
2022-11-15T13:30:06.245Z,43.5
2022-11-15T13:35:07.141Z,42.3
2022-11-15T13:40:06.373Z,39.6
2022-11-15T13:45:06.243Z,49.6
2022-11-15T13:50:07.167Z,49.2
2022-11-15T13:55:06.616Z,46.9
2022-11-15T14:00:06.917Z,74.9
2022-11-15T14:05:06.781Z,48.6
2022-11-15T14:10:06.802Z,86.2
2022-11-15T14:15:06.817Z,64.1
2022-11-15T14:20:06.980Z,47.8
2022-11-15T14:25:06.866Z,94.7
2022-11-15T14:30:07.111Z,90.3
2022-11-15T14:35:06.990Z,93
2022-11-15T14:40:06.418Z,74.8
2022-11-15T14:45:06.459Z,62.5
2022-11-15T14:50:06.590Z,66
2022-11-15T14:55:06.629Z,58.2
2022-11-15T15:00:06.975Z,50.9
2022-11-15T15:05:07.180Z,64
2022-11-15T15:10:07.249Z,57.4
2022-11-15T15:15:06.841Z,73.7
2022-11-15T15:20:07.067Z,49.5
2022-11-15T15:25:07.170Z,54.1
2022-11-15T15:30:07.096Z,91.2
2022-11-15T15:35:06.244Z,69.3
2022-11-15T15:40:07.240Z,83.8
2022-11-15T15:45:07.218Z,78.6
2022-11-15T15:50:06.360Z,109.5
2022-11-15T15:55:06.409Z,85.2
2022-11-15T16:00:06.363Z,85.3
2022-11-15T16:05:07.070Z,89.5
2022-11-15T16:10:07.005Z,74.3
2022-11-15T16:15:07.151Z,77.1
2022-11-15T16:20:07.253Z,72.3
2022-11-15T16:25:06.382Z,73.3
2022-11-15T16:30:06.744Z,47.7
2022-11-15T16:35:06.610Z,42.3
2022-11-15T16:40:06.707Z,75
2022-11-15T16:45:06.828Z,86.8
2022-11-15T16:50:06.797Z,111.4
2022-11-15T16:55:06.798Z,77.4
2022-11-15T17:00:06.852Z,89.6
2022-11-15T17:05:06.363Z,79.6
2022-11-15T17:10:06.401Z,76.6
2022-11-15T17:15:06.277Z,117.3
2022-11-15T17:20:06.305Z,74.6
2022-11-15T17:25:07.241Z,57.9
2022-11-15T17:30:06.236Z,75.9
2022-11-15T17:35:07.215Z,125.7
2022-11-15T17:40:07.232Z,155.6
2022-11-15T17:45:06.257Z,145.1
2022-11-15T17:50:07.232Z,97.8
2022-11-15T17:55:06.280Z,88.9
2022-11-15T18:00:07.256Z,75.6
2022-11-15T18:05:06.727Z,81.2
2022-11-15T18:10:06.862Z,102.9
2022-11-15T18:15:06.945Z,94.2
2022-11-15T18:20:06.957Z,88.3
2022-11-15T18:25:06.967Z,76.5
2022-11-15T18:30:06.889Z,106.8
2022-11-15T18:35:06.890Z,86
2022-11-15T18:40:06.902Z,78.8
2022-11-15T18:45:06.950Z,109.1
2022-11-15T18:50:06.906Z,98.5
2022-11-15T19:00:06.409Z,78.6
2022-11-15T19:05:07.032Z,53.2
2022-11-15T19:10:07.052Z,57.2
2022-11-15T19:15:07.148Z,56.9
2022-11-15T19:20:06.317Z,62.9
2022-11-15T19:25:06.463Z,65.3
2022-11-15T19:30:06.548Z,67.1
2022-11-15T19:35:06.500Z,55
2022-11-15T19:40:06.428Z,67.2
2022-11-15T19:45:06.438Z,63.9
2022-11-15T19:50:06.511Z,74.3
2022-11-15T19:55:07.006Z,82
2022-11-15T20:00:07.131Z,54.4
2022-11-15T20:05:06.787Z,58.6
2022-11-15T20:10:06.954Z,64.3
2022-11-15T20:15:06.841Z,111.2
2022-11-15T20:20:06.794Z,99.5
2022-11-15T20:25:06.657Z,108.8
2022-11-15T20:30:06.637Z,74.2
2022-11-15T20:35:06.546Z,71.2
2022-11-15T20:40:06.481Z,81.3
2022-11-15T20:45:06.441Z,129.2
2022-11-15T20:50:06.409Z,140
2022-11-15T20:55:06.618Z,141.9
2022-11-15T21:00:06.857Z,141.3
2022-11-15T21:05:06.401Z,155.5
2022-11-15T21:10:06.461Z,148.7
2022-11-15T21:15:06.448Z,192.8
2022-11-15T21:20:06.354Z,185.6
2022-11-15T21:25:06.473Z,182.2
2022-11-15T21:30:06.489Z,183.9
2022-11-15T21:35:06.423Z,196.4
2022-11-15T21:40:06.518Z,158.2
2022-11-15T21:45:06.512Z,207.8
2022-11-15T21:50:06.677Z,221
2022-11-15T21:55:06.807Z,203.3
2022-11-15T22:00:06.919Z,203.9
2022-11-15T22:05:06.589Z,177.5
2022-11-15T22:10:06.439Z,177.1
2022-11-15T22:15:06.322Z,183.6
2022-11-15T22:20:06.342Z,178.1
2022-11-15T22:25:06.550Z,189.8
2022-11-15T22:30:06.561Z,178.6
2022-11-15T22:35:06.491Z,192.7
2022-11-15T22:40:06.677Z,155
2022-11-15T22:45:06.824Z,182.6
2022-11-15T22:50:06.935Z,155.2
2022-11-15T22:55:06.851Z,162.2
2022-11-15T23:00:07.028Z,180.4
2022-11-15T23:05:06.609Z,173.8
2022-11-15T23:10:06.660Z,166.8
2022-11-15T23:15:06.567Z,163.9
2022-11-15T23:20:06.520Z,148.2
2022-11-15T23:25:07.174Z,167
2022-11-15T23:30:06.333Z,150.5
2022-11-15T23:35:06.370Z,169.2
2022-11-15T23:40:06.361Z,160.6
2022-11-15T23:45:06.321Z,160.9
2022-11-15T23:50:06.377Z,151.8
2022-11-15T23:55:06.303Z,250.1
